Time;durP1;ratioP1;P1;durP2;ratioP2;P2;SDS_P1;SDS_P2;PMS_P1;PMS_P2;Temp;Humidity;BMP_temperature;BMP_pressure;BME280_temperature;BME280_humidity;BME280_pressure;Samples;Min_cycle;Max_cycle;Signal;HPM_P1;HPM_P2
2021/04/02 00:01:07;;;;;;;29.00;20.43;;;12.80;99.30;;;;;;4966219;28;20194;-83
2021/04/02 00:03:35;;;;;;;27.73;18.53;;;12.80;99.60;;;;;;4946846;28;20454;-83
2021/04/02 00:06:06;;;;;;;30.30;20.27;;;12.80;99.40;;;;;;4963242;28;20531;-84
2021/04/02 00:08:33;;;;;;;30.10;21.10;;;12.90;99.00;;;;;;4949240;28;20508;-83
2021/04/02 00:11:01;;;;;;;30.57;21.20;;;13.00;98.90;;;;;;4964553;28;20456;-83
2021/04/02 00:13:29;;;;;;;32.20;19.93;;;13.00;98.90;;;;;;4949042;28;20448;-82
2021/04/02 00:15:56;;;;;;;27.53;20.20;;;12.90;99.10;;;;;;4949832;28;20442;-83
2021/04/02 00:18:23;;;;;;;34.30;22.53;;;12.80;99.30;;;;;;4959711;28;20492;-83
2021/04/02 00:20:48;;;;;;;29.63;20.30;;;12.80;99.70;;;;;;4965359;28;20997;-83
2021/04/02 00:23:14;;;;;;;29.27;21.63;;;12.60;99.90;;;;;;4946941;28;20458;-83
2021/04/02 00:25:40;;;;;;;33.57;20.43;;;12.50;99.90;;;;;;4947744;28;20202;-83
2021/04/02 00:28:07;;;;;;;30.10;20.23;;;12.40;99.90;;;;;;4951303;28;21122;-83
2021/04/02 00:30:43;;;;;;;33.80;20.13;;;12.30;99.90;;;;;;4948173;28;20441;-83
2021/04/02 00:33:10;;;;;;;29.70;20.87;;;12.20;99.90;;;;;;4965396;28;20989;-83
2021/04/02 00:35:37;;;;;;;27.80;19.93;;;12.10;99.90;;;;;;4961029;28;20458;-83
2021/04/02 00:38:04;;;;;;;31.00;21.60;;;12.00;99.90;;;;;;4949241;28;20450;-83
2021/04/02 00:40:36;;;;;;;25.43;19.43;;;12.00;99.90;;;;;;4964210;28;20954;-83
2021/04/02 00:43:03;;;;;;;31.10;20.70;;;12.00;99.90;;;;;;4946449;28;20477;-83
2021/04/02 00:45:28;;;;;;;32.10;21.00;;;11.90;99.90;;;;;;4948372;28;20453;-83
2021/04/02 00:47:55;;;;;;;30.00;22.30;;;11.80;99.90;;;;;;4965203;28;20453;-83
2021/04/02 00:50:40;;;;;;;34.03;23.17;;;11.80;99.90;;;;;;4962702;28;20240;-83
2021/04/02 00:53:06;;;;;;;29.90;21.70;;;11.80;99.90;;;;;;4960741;28;20465;-83
2021/04/02 00:55:32;;;;;;;32.27;22.10;;;11.70;99.90;;;;;;4951594;28;20445;-83
2021/04/02 00:57:58;;;;;;;33.80;20.53;;;11.70;99.90;;;;;;4945579;28;20485;-83
2021/04/02 01:00:25;;;;;;;35.40;22.00;;;11.70;99.90;;;;;;4949838;28;20205;-83
2021/04/02 01:02:51;;;;;;;32.43;21.70;;;11.80;99.90;;;;;;4949382;28;20568;-83
2021/04/02 01:05:25;;;;;;;35.30;21.20;;;11.80;99.90;;;;;;4947801;28;20453;-83
2021/04/02 01:07:53;;;;;;;32.43;21.70;;;11.80;99.90;;;;;;4952892;28;20490;-83
2021/04/02 01:10:20;;;;;;;35.90;23.30;;;11.70;99.90;;;;;;4949830;28;20486;-82
2021/04/02 01:12:46;;;;;;;33.97;23.70;;;11.60;99.90;;;;;;4949052;28;20477;-82
2021/04/02 01:15:20;;;;;;;35.33;23.20;;;11.60;99.90;;;;;;4968247;28;20445;-83
2021/04/02 01:17:49;;;;;;;40.53;25.07;;;11.50;99.90;;;;;;4952075;28;20734;-82
2021/04/02 01:20:16;;;;;;;39.70;24.53;;;11.50;99.90;;;;;;4951723;28;20939;-82
2021/04/02 01:22:44;;;;;;;30.80;23.90;;;11.50;99.90;;;;;;4952135;28;20486;-83
2021/04/02 01:25:50;;;;;;;32.73;23.33;;;11.50;99.90;;;;;;4963974;28;20453;-82
2021/04/02 01:28:28;;;;;;;34.50;24.17;;;11.50;99.90;;;;;;4949364;28;20461;-82
2021/04/02 01:30:57;;;;;;;33.00;25.83;;;11.60;99.90;;;;;;4954409;28;20848;-82
2021/04/02 01:33:24;;;;;;;35.80;25.03;;;11.70;99.90;;;;;;4951575;28;20442;-82
2021/04/02 01:35:54;;;;;;;36.03;24.20;;;11.70;99.90;;;;;;4966430;28;20441;-82
2021/04/02 01:38:28;;;;;;;35.90;23.30;;;11.60;99.90;;;;;;4950570;28;20457;-82
2021/04/02 01:40:59;;;;;;;33.60;24.47;;;11.50;99.90;;;;;;4952786;28;20535;-82
2021/04/02 01:43:41;;;;;;;35.53;23.30;;;11.40;99.90;;;;;;4967132;28;20465;-82
2021/04/02 01:46:08;;;;;;;34.57;24.60;;;11.30;99.90;;;;;;4949953;28;20434;-82
2021/04/02 01:48:37;;;;;;;30.17;23.63;;;11.20;99.90;;;;;;4951349;28;20449;-82
2021/04/02 01:51:05;;;;;;;31.70;21.90;;;11.20;99.90;;;;;;4952774;28;20456;-81
2021/04/02 01:53:39;;;;;;;30.50;22.50;;;11.20;99.90;;;;;;4953299;28;20453;-82
2021/04/02 01:56:07;;;;;;;36.07;23.13;;;11.20;99.90;;;;;;4968532;28;20548;-82
2021/04/02 01:58:33;;;;;;;33.23;23.67;;;11.10;99.90;;;;;;4953265;28;20945;-82
2021/04/02 02:01:01;;;;;;;32.37;23.77;;;11.10;99.90;;;;;;4966415;28;20931;-82
2021/04/02 02:03:28;;;;;;;31.83;22.03;;;11.00;99.90;;;;;;4951844;28;20588;-82
2021/04/02 02:05:55;;;;;;;35.10;23.93;;;11.00;99.90;;;;;;4965365;28;20445;-82
2021/04/02 02:08:22;;;;;;;29.10;24.70;;;11.00;99.90;;;;;;4951419;28;20460;-82
2021/04/02 02:10:58;;;;;;;34.93;23.90;;;11.00;99.90;;;;;;4950690;28;21107;-82
2021/04/02 02:13:27;;;;;;;32.47;24.87;;;10.90;99.90;;;;;;4952217;28;20456;-82
2021/04/02 02:15:54;;;;;;;31.67;23.50;;;10.90;99.90;;;;;;4953585;28;20860;-82
2021/04/02 02:18:24;;;;;;;35.03;24.93;;;10.80;99.90;;;;;;4967919;28;20810;-82
2021/04/02 02:20:51;;;;;;;33.80;24.90;;;10.70;99.90;;;;;;4967915;28;20786;-82
2021/04/02 02:23:16;;;;;;;36.97;25.00;;;10.70;99.90;;;;;;4951251;28;21113;-82
2021/04/02 02:25:42;;;;;;;37.67;24.60;;;10.70;99.90;;;;;;4966316;28;21107;-82
2021/04/02 02:28:08;;;;;;;40.20;25.93;;;10.70;99.90;;;;;;4952901;28;20202;-82
2021/04/02 02:30:35;;;;;;;32.63;24.57;;;10.70;99.90;;;;;;4949209;28;20218;-82
2021/04/02 02:33:00;;;;;;;33.93;25.13;;;10.70;99.90;;;;;;4950198;28;20213;-82
2021/04/02 02:35:26;;;;;;;35.47;24.73;;;10.70;99.90;;;;;;4949077;28;20548;-82
2021/04/02 02:37:55;;;;;;;36.60;25.00;;;10.70;99.90;;;;;;4968120;28;20194;-82
2021/04/02 02:40:26;;;;;;;32.97;23.07;;;10.60;99.90;;;;;;4949506;28;20446;-82
2021/04/02 02:42:54;;;;;;;30.73;21.10;;;10.70;99.90;;;;;;4951853;28;21072;-82
2021/04/02 02:45:20;;;;;;;29.37;21.07;;;10.60;99.90;;;;;;4948337;28;20451;-82
2021/04/02 02:47:46;;;;;;;30.37;20.90;;;10.60;99.90;;;;;;4954732;28;20439;-82
2021/04/02 02:50:25;;;;;;;32.50;19.57;;;10.50;99.90;;;;;;4964309;28;20472;-82
2021/04/02 02:52:53;;;;;;;31.70;19.60;;;10.40;99.90;;;;;;4951951;28;21241;-82
2021/04/02 02:55:21;;;;;;;31.07;20.67;;;10.30;99.90;;;;;;4963523;28;20559;-83
2021/04/02 02:57:49;;;;;;;31.00;18.37;;;10.10;99.90;;;;;;4953725;28;20519;-83
2021/04/02 03:00:19;;;;;;;28.00;18.60;;;10.20;99.90;;;;;;4965128;28;20521;-82
2021/04/02 03:02:55;;;;;;;30.03;16.57;;;10.20;99.90;;;;;;4967721;28;20460;-82
2021/04/02 03:05:24;;;;;;;26.73;16.07;;;10.10;99.90;;;;;;4964922;28;20551;-82
2021/04/02 03:07:53;;;;;;;21.67;15.20;;;10.20;99.90;;;;;;4952993;28;20444;-82
2021/04/02 03:10:19;;;;;;;20.20;14.30;;;10.20;99.90;;;;;;4951051;28;20478;-82
2021/04/02 03:12:47;;;;;;;19.47;14.80;;;10.10;99.90;;;;;;4951118;28;20512;-82
2021/04/02 03:15:16;;;;;;;18.70;13.50;;;10.10;99.90;;;;;;4950410;28;20497;-82
2021/04/02 03:17:43;;;;;;;20.67;14.50;;;10.00;99.90;;;;;;4950945;28;20452;-82
2021/04/02 03:20:10;;;;;;;22.63;13.10;;;9.90;99.90;;;;;;4950929;28;20572;-83
2021/04/02 03:22:36;;;;;;;20.07;12.83;;;9.80;99.90;;;;;;4964814;28;20445;-82
2021/04/02 03:25:09;;;;;;;17.80;13.10;;;9.80;99.90;;;;;;4950000;28;20473;-83
2021/04/02 03:27:39;;;;;;;21.90;13.10;;;9.70;99.90;;;;;;4952130;28;20933;-83
2021/04/02 03:30:07;;;;;;;19.13;13.50;;;9.70;99.90;;;;;;4949679;28;20502;-83
2021/04/02 03:32:36;;;;;;;16.67;13.57;;;9.70;99.90;;;;;;4950009;28;20487;-82
2021/04/02 03:35:03;;;;;;;18.07;14.20;;;9.70;99.90;;;;;;4964493;28;20478;-82
2021/04/02 03:37:32;;;;;;;18.83;14.10;;;9.50;99.90;;;;;;4949334;28;20447;-82
2021/04/02 03:40:00;;;;;;;21.00;14.33;;;9.40;99.90;;;;;;4963603;28;20439;-82
2021/04/02 03:42:27;;;;;;;20.37;14.43;;;9.30;99.90;;;;;;4965672;28;20492;-82
2021/04/02 03:44:55;;;;;;;19.00;13.47;;;9.20;99.90;;;;;;4966427;28;20447;-82
2021/04/02 03:47:21;;;;;;;14.83;11.53;;;9.30;99.90;;;;;;4949371;28;20824;-82
2021/04/02 03:49:49;;;;;;;17.17;12.70;;;9.40;99.90;;;;;;4950242;28;20541;-82
2021/04/02 03:52:27;;;;;;;17.40;12.53;;;9.40;99.90;;;;;;4950086;28;20482;-82
2021/04/02 03:54:55;;;;;;;15.93;11.77;;;9.40;99.90;;;;;;4949266;28;20454;-82
2021/04/02 03:57:24;;;;;;;13.27;10.60;;;9.40;99.90;;;;;;4966100;28;20837;-83
2021/04/02 03:59:52;;;;;;;17.07;11.90;;;9.30;99.90;;;;;;4946476;28;20516;-82
2021/04/02 04:02:18;;;;;;;14.90;10.90;;;9.30;99.90;;;;;;4946198;28;20854;-83
2021/04/02 04:04:47;;;;;;;15.10;9.83;;;9.30;99.90;;;;;;4965908;28;20449;-82
2021/04/02 04:07:16;;;;;;;12.07;9.37;;;9.30;99.90;;;;;;4948489;28;20585;-82
2021/04/02 04:09:44;;;;;;;13.30;8.73;;;9.20;99.90;;;;;;4950779;28;20456;-82
2021/04/02 04:12:12;;;;;;;11.63;9.03;;;9.30;99.90;;;;;;4945026;28;20479;-83
2021/04/02 04:14:40;;;;;;;13.43;9.70;;;9.20;99.90;;;;;;4946959;28;20456;-82
2021/04/02 04:17:08;;;;;;;9.90;8.23;;;9.10;99.90;;;;;;4948577;28;20974;-82
2021/04/02 04:19:36;;;;;;;10.70;7.70;;;9.10;99.90;;;;;;4947936;28;20562;-83
2021/04/02 04:22:04;;;;;;;8.97;7.10;;;9.00;99.90;;;;;;4947914;28;20966;-83
2021/04/02 04:24:38;;;;;;;11.20;8.10;;;9.00;99.90;;;;;;4963885;28;20482;-82
2021/04/02 04:27:10;;;;;;;9.87;6.80;;;9.00;99.90;;;;;;4944972;28;20441;-82
2021/04/02 04:29:41;;;;;;;9.77;7.30;;;8.90;99.90;;;;;;4966838;28;20986;-82
2021/04/02 04:32:10;;;;;;;7.00;6.03;;;8.90;99.90;;;;;;4948624;28;21212;-82
2021/04/02 04:34:37;;;;;;;11.27;7.00;;;8.80;99.90;;;;;;4947545;28;20824;-82
2021/04/02 04:37:05;;;;;;;7.27;6.53;;;8.80;99.90;;;;;;4945361;28;20476;-82
2021/04/02 04:39:34;;;;;;;7.43;6.50;;;8.80;99.90;;;;;;4964109;28;20441;-82
2021/04/02 04:42:02;;;;;;;7.67;6.00;;;8.70;99.90;;;;;;4951737;28;20561;-82
2021/04/02 04:44:29;;;;;;;10.23;6.73;;;8.60;99.90;;;;;;4955145;28;20478;-82
2021/04/02 04:46:55;;;;;;;10.47;6.10;;;8.60;99.90;;;;;;4952848;28;21082;-82
2021/04/02 04:49:21;;;;;;;7.23;6.53;;;8.50;99.90;;;;;;4970177;28;20469;-82
2021/04/02 04:51:48;;;;;;;7.90;5.87;;;8.50;99.90;;;;;;4968164;28;20579;-82
2021/04/02 04:54:18;;;;;;;7.77;6.10;;;8.40;99.90;;;;;;4951586;28;20202;-82
2021/04/02 04:56:44;;;;;;;9.03;6.90;;;8.40;99.90;;;;;;4951901;28;20503;-82
2021/04/02 04:59:11;;;;;;;9.40;6.10;;;8.30;99.90;;;;;;4951612;28;20928;-82
2021/04/02 05:01:40;;;;;;;11.93;6.37;;;8.30;99.90;;;;;;4971479;28;20438;-82
2021/04/02 05:04:08;;;;;;;8.90;5.53;;;8.30;99.90;;;;;;4973951;28;20459;-82
2021/04/02 05:06:35;;;;;;;6.37;5.47;;;8.20;99.90;;;;;;4966905;28;20446;-82
2021/04/02 05:09:03;;;;;;;8.90;5.10;;;8.20;99.90;;;;;;4951713;28;20452;-82
2021/04/02 05:11:31;;;;;;;6.73;4.93;;;8.20;99.90;;;;;;4966512;28;20487;-81
2021/04/02 05:13:57;;;;;;;5.53;5.10;;;8.10;99.90;;;;;;4954126;28;21285;-81
2021/04/02 05:16:24;;;;;;;8.70;6.23;;;8.10;99.90;;;;;;4951884;28;20825;-81
2021/04/02 05:18:53;;;;;;;7.30;5.20;;;8.10;99.90;;;;;;4952922;28;20456;-81
2021/04/02 05:21:19;;;;;;;6.50;5.67;;;8.10;99.90;;;;;;4967511;28;20516;-81
2021/04/02 05:23:46;;;;;;;6.93;5.00;;;8.20;99.90;;;;;;4967612;28;20460;-81
2021/04/02 05:26:13;;;;;;;4.73;4.00;;;8.30;99.90;;;;;;4949689;28;20248;-81
2021/04/02 05:28:40;;;;;;;6.47;4.33;;;8.20;99.90;;;;;;4951643;28;20464;-81
2021/04/02 05:31:06;;;;;;;4.77;4.27;;;8.20;99.90;;;;;;4966197;28;21938;-81
2021/04/02 05:33:32;;;;;;;6.93;4.13;;;8.20;99.90;;;;;;4967040;28;20516;-82
2021/04/02 05:35:58;;;;;;;4.87;4.17;;;8.20;99.90;;;;;;4952893;28;21171;-82
2021/04/02 05:38:24;;;;;;;4.80;3.83;;;8.20;99.90;;;;;;4950587;28;20676;-82
2021/04/02 05:40:49;;;;;;;6.47;4.67;;;8.30;99.90;;;;;;4950299;28;20447;-81
2021/04/02 05:43:18;;;;;;;7.30;4.50;;;8.20;99.90;;;;;;4967139;28;20197;-82
2021/04/02 05:45:46;;;;;;;5.00;4.10;;;8.20;99.90;;;;;;4966118;28;20205;-81
2021/04/02 05:48:15;;;;;;;4.87;3.87;;;8.20;99.90;;;;;;4950465;28;20466;-81
2021/04/02 05:50:41;;;;;;;4.77;3.73;;;8.30;99.90;;;;;;4952656;28;20472;-81
2021/04/02 05:53:11;;;;;;;4.43;3.80;;;8.40;99.90;;;;;;4968670;28;20493;-81
2021/04/02 05:55:43;;;;;;;4.70;4.20;;;8.40;99.90;;;;;;4951454;28;20843;-81
2021/04/02 05:58:10;;;;;;;3.77;3.40;;;8.50;99.90;;;;;;4950502;28;20986;-81
2021/04/02 06:00:37;;;;;;;5.90;4.03;;;8.50;99.90;;;;;;4969150;28;20450;-81
2021/04/02 06:03:05;;;;;;;5.40;4.17;;;8.50;99.90;;;;;;4964353;28;20860;-82
2021/04/02 06:05:32;;;;;;;6.30;4.30;;;8.50;99.90;;;;;;4948864;28;20453;-82
2021/04/02 06:07:58;;;;;;;5.60;3.83;;;8.60;99.90;;;;;;4954201;28;20759;-82
2021/04/02 06:10:25;;;;;;;6.10;4.90;;;8.50;99.90;;;;;;4965315;28;20495;-82
2021/04/02 06:12:51;;;;;;;5.60;3.80;;;8.60;99.90;;;;;;4952779;28;20865;-82
2021/04/02 06:15:21;;;;;;;5.90;4.10;;;8.60;99.90;;;;;;4966105;28;20437;-82
2021/04/02 06:17:57;;;;;;;5.13;3.90;;;8.70;99.90;;;;;;4953435;28;20461;-82
2021/04/02 06:20:45;;;;;;;8.27;4.80;;;8.60;99.90;;;;;;4950482;28;20955;-82
2021/04/02 06:23:24;;;;;;;5.43;4.00;;;8.60;99.90;;;;;;4966695;28;21228;-82
2021/04/02 06:25:54;;;;;;;4.30;3.90;;;8.70;99.90;;;;;;4949797;28;20962;-83
2021/04/02 06:28:23;;;;;;;5.63;5.00;;;8.80;99.90;;;;;;4949838;28;20441;-82
2021/04/02 06:30:56;;;;;;;5.10;4.60;;;8.90;99.90;;;;;;4965247;28;21044;-81
2021/04/02 06:33:28;;;;;;;8.30;5.90;;;8.90;99.90;;;;;;4963589;28;20842;-82
2021/04/02 06:35:54;;;;;;;6.60;5.10;;;9.10;99.90;;;;;;4949790;28;20527;-82
2021/04/02 06:38:20;;;;;;;5.00;4.50;;;9.30;99.90;;;;;;4949382;28;20458;-81
2021/04/02 06:40:46;;;;;;;5.73;4.80;;;9.50;99.90;;;;;;4964480;28;20199;-81
2021/04/02 06:43:11;;;;;;;8.23;5.70;;;9.50;99.90;;;;;;4950655;28;20873;-81
2021/04/02 06:45:39;;;;;;;6.07;4.63;;;9.40;99.90;;;;;;4950403;28;20217;-82
2021/04/02 06:48:12;;;;;;;5.90;5.30;;;9.50;99.90;;;;;;4968751;28;20216;-81
2021/04/02 06:50:39;;;;;;;6.60;5.47;;;9.50;99.90;;;;;;4967704;28;20480;-81
2021/04/02 06:53:05;;;;;;;7.57;5.43;;;9.40;99.90;;;;;;4951216;28;21361;-81
2021/04/02 06:55:32;;;;;;;8.40;6.00;;;9.60;99.90;;;;;;4950456;28;20729;-81
2021/04/02 06:58:05;;;;;;;8.40;5.10;;;9.70;99.90;;;;;;4951832;28;20465;-82
2021/04/02 07:00:34;;;;;;;6.57;5.10;;;9.60;99.90;;;;;;4951853;28;20456;-82
2021/04/02 07:03:01;;;;;;;14.33;10.20;;;9.80;99.90;;;;;;4953450;28;20532;-82
2021/04/02 07:05:26;;;;;;;9.57;6.50;;;10.00;99.80;;;;;;4952285;28;20450;-81
2021/04/02 07:07:55;;;;;;;8.37;6.57;;;10.00;99.80;;;;;;4965630;28;21076;-83
2021/04/02 07:10:22;;;;;;;6.93;6.23;;;9.90;99.90;;;;;;4967245;28;20716;-83
2021/04/02 07:12:53;;;;;;;7.07;6.23;;;9.90;99.90;;;;;;4942643;28;20490;-83
2021/04/02 07:15:19;;;;;;;9.43;6.33;;;10.00;99.90;;;;;;4944837;28;20443;-85
2021/04/02 07:17:45;;;;;;;6.63;5.83;;;10.30;99.40;;;;;;4958639;28;20485;-83
2021/04/02 07:20:13;;;;;;;7.20;5.70;;;10.30;98.80;;;;;;4945055;28;20468;-84
2021/04/02 07:22:51;;;;;;;8.10;6.10;;;10.20;98.80;;;;;;4943714;28;20452;-86
2021/04/02 07:25:18;;;;;;;8.17;6.60;;;10.40;99.70;;;;;;4953113;28;20446;-85
2021/04/02 07:27:44;;;;;;;9.37;5.50;;;10.50;99.00;;;;;;4942589;28;20458;-85
2021/04/02 07:30:15;;;;;;;7.80;5.90;;;10.50;99.00;;;;;;4945417;28;20536;-85
2021/04/02 07:32:44;;;;;;;7.80;6.37;;;10.60;98.80;;;;;;4945026;28;20488;-85
2021/04/02 07:35:22;;;;;;;8.80;7.03;;;10.60;98.90;;;;;;4938346;28;20533;-84
2021/04/02 07:37:56;;;;;;;8.70;6.23;;;10.50;98.20;;;;;;4944884;28;20454;-85
2021/04/02 07:40:37;;;;;;;7.93;6.83;;;10.30;98.20;;;;;;4945603;28;20597;-85
2021/04/02 07:43:08;;;;;;;10.67;7.10;;;10.30;98.60;;;;;;4946316;28;20508;-85
2021/04/02 07:45:36;;;;;;;8.57;6.77;;;10.30;98.50;;;;;;4941316;28;20453;-85
2021/04/02 07:48:23;;;;;;;8.37;6.87;;;10.60;98.30;;;;;;4947580;28;20459;-84
2021/04/02 07:51:02;;;;;;;10.13;6.40;;;10.50;97.70;;;;;;4941020;28;20450;-85
2021/04/02 07:53:44;;;;;;;8.53;6.83;;;10.70;97.40;;;;;;4943926;28;20468;-85
2021/04/02 07:56:34;;;;;;;8.70;6.70;;;10.90;97.10;;;;;;4942412;28;20507;-86
2021/04/02 07:59:04;;;;;;;8.13;6.80;;;11.10;97.40;;;;;;4943345;28;20549;-84
2021/04/02 08:04:57;;;;;;;10.37;7.00;;;11.00;96.80;;;;;;4941420;28;20463;-87
2021/04/02 08:07:43;;;;;;;8.67;6.63;;;11.50;98.10;;;;;;4943854;28;20490;-87
2021/04/02 08:10:20;;;;;;;8.07;6.30;;;11.50;96.60;;;;;;4942442;28;21035;-87
2021/04/02 08:12:46;;;;;;;7.33;6.63;;;11.50;96.30;;;;;;4941213;28;20484;-86
2021/04/02 08:15:16;;;;;;;10.30;6.80;;;11.50;95.90;;;;;;4942603;28;20205;-87
2021/04/02 08:17:42;;;;;;;8.80;7.70;;;10.90;96.10;;;;;;4960070;28;20463;-86
2021/04/02 08:20:29;;;;;;;10.03;7.53;;;10.80;96.50;;;;;;4945305;28;20468;-87
2021/04/02 08:22:55;;;;;;;11.70;7.13;;;10.90;97.30;;;;;;4949334;28;20710;-87
2021/04/02 08:25:23;;;;;;;9.10;6.93;;;11.20;97.60;;;;;;4945603;28;20914;-87
2021/04/02 08:27:48;;;;;;;7.87;7.00;;;11.20;96.20;;;;;;4942885;28;20295;-86
2021/04/02 08:30:16;;;;;;;10.87;8.10;;;11.40;97.30;;;;;;4958276;28;20457;-87
2021/04/02 08:32:49;;;;;;;8.13;7.07;;;11.80;96.60;;;;;;4960553;28;20513;-87
2021/04/02 08:35:25;;;;;;;10.50;8.13;;;12.20;96.50;;;;;;4960842;28;20545;-88
2021/04/02 08:38:03;;;;;;;8.47;7.10;;;12.40;95.10;;;;;;4946026;28;20841;-85
2021/04/02 08:40:29;;;;;;;8.53;7.20;;;11.90;94.40;;;;;;4944328;28;20468;-85
2021/04/02 08:43:03;;;;;;;9.97;8.07;;;11.50;95.50;;;;;;4961728;28;20449;-86
2021/04/02 08:45:39;;;;;;;11.57;7.57;;;11.80;96.20;;;;;;4943083;28;20926;-86
2021/04/02 08:48:06;;;;;;;11.73;8.17;;;11.90;96.40;;;;;;4962299;28;21192;-88
2021/04/02 08:50:32;;;;;;;11.10;8.23;;;12.10;95.00;;;;;;4943058;28;21531;-89
2021/04/02 08:53:09;;;;;;;10.20;8.03;;;12.10;94.80;;;;;;4944983;28;20498;-89
2021/04/02 08:55:43;;;;;;;11.33;8.40;;;12.30;94.70;;;;;;4946385;28;20931;-90
2021/04/02 08:58:13;;;;;;;9.60;8.10;;;12.40;95.70;;;;;;4945990;28;21059;-89
2021/04/02 09:00:40;;;;;;;10.33;8.20;;;12.70;94.20;;;;;;4948127;28;20480;-90
2021/04/02 09:03:15;;;;;;;10.17;9.17;;;12.50;94.00;;;;;;4944704;28;20481;-88
2021/04/02 09:05:41;;;;;;;10.73;8.10;;;12.80;95.10;;;;;;4946519;28;20508;-87
2021/04/02 09:08:09;;;;;;;10.20;8.10;;;12.70;93.80;;;;;;4946284;28;20449;-86
2021/04/02 09:10:37;;;;;;;9.20;8.17;;;12.60;94.90;;;;;;4944643;28;20207;-89
2021/04/02 09:13:02;;;;;;;10.90;8.80;;;12.80;94.30;;;;;;4945628;28;20509;-84
2021/04/02 09:15:31;;;;;;;10.77;8.90;;;12.40;94.30;;;;;;4962200;28;20445;-84
2021/04/02 09:18:18;;;;;;;10.20;8.50;;;12.70;95.20;;;;;;4959745;28;20186;-84
2021/04/02 09:20:45;;;;;;;11.00;9.00;;;13.20;94.60;;;;;;4948744;28;20468;-84
2021/04/02 09:23:12;;;;;;;9.47;8.47;;;13.50;94.40;;;;;;4959564;28;21988;-84
2021/04/02 09:25:44;;;;;;;9.37;8.37;;;13.70;92.70;;;;;;4946610;28;20484;-83
2021/04/02 09:28:09;;;;;;;10.60;9.00;;;13.20;93.10;;;;;;4943366;28;20449;-84
2021/04/02 09:30:35;;;;;;;11.40;9.40;;;12.90;94.40;;;;;;4941794;28;20466;-86
2021/04/02 09:33:01;;;;;;;12.30;9.83;;;12.80;92.90;;;;;;4943972;28;20600;-87
2021/04/02 09:35:26;;;;;;;10.80;9.70;;;13.20;94.70;;;;;;4946504;28;20584;-87
2021/04/02 09:37:52;;;;;;;11.27;9.43;;;13.30;93.10;;;;;;4944757;28;20194;-88
2021/04/02 09:40:18;;;;;;;11.20;10.10;;;13.30;92.70;;;;;;4945527;28;20285;-86
2021/04/02 09:42:48;;;;;;;9.70;8.70;;;13.20;92.40;;;;;;4948183;28;20523;-86
2021/04/02 09:45:15;;;;;;;10.10;9.10;;;12.90;93.20;;;;;;4961138;28;20205;-86
2021/04/02 09:47:43;;;;;;;10.97;9.87;;;13.00;92.80;;;;;;4944676;28;20469;-87
2021/04/02 09:50:11;;;;;;;11.57;9.97;;;13.40;93.60;;;;;;4949639;28;20442;-89
2021/04/02 09:52:41;;;;;;;13.20;10.80;;;13.70;93.50;;;;;;4949604;28;20486;-85
2021/04/02 09:55:07;;;;;;;11.07;9.93;;;13.50;91.90;;;;;;4947997;28;20791;-87
2021/04/02 09:57:34;;;;;;;12.87;9.87;;;12.80;93.10;;;;;;4946187;28;20456;-87
2021/04/02 10:00:00;;;;;;;14.10;10.10;;;12.60;92.80;;;;;;4948037;28;20498;-86
2021/04/02 10:02:26;;;;;;;13.40;10.67;;;13.30;94.60;;;;;;4945889;28;20457;-84
2021/04/02 10:04:52;;;;;;;11.43;10.30;;;14.20;91.90;;;;;;4960195;28;20434;-84
2021/04/02 10:07:19;;;;;;;11.23;10.17;;;14.30;91.30;;;;;;4947966;28;20186;-85
2021/04/02 10:09:44;;;;;;;12.60;10.90;;;14.40;91.70;;;;;;4949539;28;20442;-86
2021/04/02 10:12:10;;;;;;;11.57;10.37;;;14.70;91.80;;;;;;4962379;28;20488;-86
2021/04/02 10:14:36;;;;;;;12.63;10.53;;;14.90;90.60;;;;;;4943586;28;20187;-86
2021/04/02 10:17:03;;;;;;;11.83;10.63;;;14.60;89.80;;;;;;4960429;28;20245;-86
2021/04/02 10:19:32;;;;;;;12.00;10.43;;;14.40;89.60;;;;;;4946368;28;20809;-85
2021/04/02 10:21:57;;;;;;;10.90;9.80;;;13.80;90.80;;;;;;4962903;28;20477;-85
2021/04/02 10:24:23;;;;;;;10.40;9.40;;;13.80;91.10;;;;;;4947023;28;20456;-85
2021/04/02 10:26:48;;;;;;;11.50;10.33;;;13.30;91.20;;;;;;4960845;28;20551;-85
2021/04/02 10:29:14;;;;;;;11.90;10.70;;;12.90;91.10;;;;;;4962113;28;20213;-85
2021/04/02 10:31:40;;;;;;;11.00;9.90;;;12.70;92.60;;;;;;4946844;28;20222;-84
2021/04/02 10:34:07;;;;;;;13.03;10.40;;;12.80;92.10;;;;;;4944130;28;20761;-86
2021/04/02 10:36:32;;;;;;;11.23;10.03;;;13.80;93.30;;;;;;4945238;28;20193;-84
2021/04/02 10:38:58;;;;;;;10.70;9.60;;;14.70;89.00;;;;;;4943798;28;20464;-85
2021/04/02 10:41:24;;;;;;;10.60;9.60;;;14.90;88.40;;;;;;4946120;28;20534;-85
2021/04/02 10:43:51;;;;;;;11.73;10.33;;;15.40;84.70;;;;;;4946255;28;20198;-85
2021/04/02 10:46:17;;;;;;;11.10;10.10;;;15.00;83.40;;;;;;4959746;28;20197;-85
2021/04/02 10:48:42;;;;;;;12.17;9.13;;;14.90;86.60;;;;;;4942064;28;20453;-86
2021/04/02 10:51:09;;;;;;;10.60;9.60;;;14.70;84.30;;;;;;4958243;28;20194;-85
2021/04/02 10:56:18;;;;;;;12.40;9.30;;;15.40;84.10;;;;;;4942661;28;20770;-87
2021/04/02 10:58:46;;;;;;;9.63;8.77;;;15.20;83.00;;;;;;4944017;28;20442;-86
2021/04/02 11:01:12;;;;;;;11.07;9.97;;;14.50;80.40;;;;;;4947015;28;20193;-86
2021/04/02 11:03:37;;;;;;;10.47;9.33;;;14.30;81.20;;;;;;4944040;28;20879;-84
2021/04/02 11:06:03;;;;;;;9.93;8.87;;;14.40;83.80;;;;;;4955736;28;20269;-86
2021/04/02 11:08:32;;;;;;;10.37;9.37;;;14.70;82.80;;;;;;4961330;28;20257;-85
2021/04/02 11:10:58;;;;;;;10.23;9.23;;;15.30;81.90;;;;;;4959658;28;20547;-84
2021/04/02 11:13:23;;;;;;;10.53;9.43;;;15.80;80.20;;;;;;4944582;28;20484;-86
2021/04/02 11:15:49;;;;;;;11.60;10.40;;;16.00;75.50;;;;;;4962790;28;20194;-85
2021/04/02 11:18:15;;;;;;;11.50;10.30;;;15.90;73.60;;;;;;4960954;28;20191;-85
2021/04/02 11:20:43;;;;;;;10.80;9.70;;;15.80;76.80;;;;;;4961333;28;20270;-86
2021/04/02 11:23:08;;;;;;;9.70;8.70;;;16.00;73.40;;;;;;4945838;28;20956;-86
2021/04/02 11:25:34;;;;;;;12.30;9.47;;;15.90;73.20;;;;;;4944260;28;20447;-85
2021/04/02 11:28:04;;;;;;;11.47;9.70;;;16.20;80.40;;;;;;4964728;28;20668;-86
2021/04/02 11:30:29;;;;;;;11.87;9.87;;;16.80;78.80;;;;;;4952731;28;20224;-86
2021/04/02 11:32:55;;;;;;;12.00;9.10;;;17.00;74.70;;;;;;4953866;28;21037;-86
2021/04/02 11:35:20;;;;;;;10.03;8.00;;;16.50;69.70;;;;;;4965902;28;20187;-86
2021/04/02 11:37:46;;;;;;;10.40;8.73;;;16.30;70.50;;;;;;4963880;28;20544;-86
2021/04/02 11:40:14;;;;;;;9.57;8.67;;;17.00;73.80;;;;;;4950095;28;20201;-86
2021/04/02 11:42:40;;;;;;;9.60;8.80;;;17.70;67.90;;;;;;4950062;28;20186;-86
2021/04/02 11:45:06;;;;;;;10.40;9.03;;;17.00;63.30;;;;;;4941406;28;20479;-86
2021/04/02 11:47:32;;;;;;;11.83;10.70;;;16.10;68.40;;;;;;4960302;28;20508;-86
2021/04/02 11:50:00;;;;;;;9.63;8.70;;;16.00;75.80;;;;;;4959160;28;20561;-86
2021/04/02 11:52:26;;;;;;;10.87;9.70;;;16.50;73.10;;;;;;4942136;28;20229;-86
2021/04/02 11:54:52;;;;;;;10.93;9.60;;;16.60;70.20;;;;;;4947022;28;20433;-87
2021/04/02 11:57:18;;;;;;;11.13;10.07;;;16.60;69.80;;;;;;4959201;28;20419;-86
2021/04/02 11:59:46;;;;;;;9.53;8.63;;;16.20;68.30;;;;;;4948305;28;20449;-86
2021/04/02 12:02:12;;;;;;;11.20;10.13;;;16.90;70.00;;;;;;4944963;28;20502;-87
2021/04/02 12:04:38;;;;;;;9.93;9.07;;;17.80;68.80;;;;;;4960220;28;20545;-87
2021/04/02 12:07:04;;;;;;;10.53;9.53;;;17.80;64.40;;;;;;4945551;28;20709;-87
2021/04/02 12:09:29;;;;;;;10.07;9.07;;;18.00;65.20;;;;;;4961174;28;20242;-87
2021/04/02 12:11:55;;;;;;;10.83;9.83;;;18.50;60.60;;;;;;4948726;28;20513;-87
2021/04/02 12:14:21;;;;;;;10.87;9.87;;;18.70;59.80;;;;;;4951258;28;20436;-87
2021/04/02 12:16:46;;;;;;;9.50;8.60;;;18.80;59.70;;;;;;4946452;28;20202;-87
2021/04/02 12:19:12;;;;;;;10.97;9.97;;;18.60;62.90;;;;;;4943923;28;20287;-87
2021/04/02 12:21:38;;;;;;;9.70;8.90;;;17.80;56.50;;;;;;4964558;28;20403;-87
2021/04/02 12:24:07;;;;;;;10.37;8.73;;;17.40;56.70;;;;;;4960851;28;20194;-87
2021/04/02 12:26:32;;;;;;;10.50;9.50;;;17.80;64.10;;;;;;4941091;28;20558;-87
2021/04/02 12:28:58;;;;;;;9.77;8.77;;;18.00;58.10;;;;;;4946242;28;20489;-87
2021/04/02 12:31:24;;;;;;;8.20;7.50;;;18.00;55.40;;;;;;4947930;28;20194;-87
2021/04/02 12:33:49;;;;;;;9.00;8.10;;;17.50;53.20;;;;;;4965010;28;20464;-86
2021/04/02 12:36:15;;;;;;;8.97;8.17;;;16.70;51.80;;;;;;4943431;28;20305;-86
2021/04/02 12:38:41;;;;;;;8.90;8.10;;;16.50;56.00;;;;;;4950157;28;20636;-86
2021/04/02 12:41:07;;;;;;;9.10;8.20;;;16.90;55.70;;;;;;4950507;28;20265;-87
2021/04/02 12:43:33;;;;;;;10.20;7.80;;;17.70;59.40;;;;;;4960889;28;20203;-87
2021/04/02 12:45:59;;;;;;;8.70;8.00;;;18.30;58.50;;;;;;4960796;28;20552;-87
2021/04/02 12:48:27;;;;;;;7.50;6.70;;;18.20;54.30;;;;;;4949656;28;21748;-86
2021/04/02 12:50:57;;;;;;;9.10;7.90;;;18.10;55.00;;;;;;4944946;28;20533;-87
2021/04/02 12:53:23;;;;;;;8.30;7.50;;;17.80;51.80;;;;;;4945711;28;20512;-87